createdAt,value
2023-02-12T00:02:05.301Z,2.57
2023-02-12T00:04:31.973Z,2.39
2023-02-12T00:06:58.564Z,2.64
2023-02-12T00:09:25.519Z,2.56
2023-02-12T00:11:52.281Z,2.00
2023-02-12T00:14:19.050Z,2.26
2023-02-12T00:16:45.706Z,2.44
2023-02-12T00:19:12.418Z,2.52
2023-02-12T00:21:39.151Z,2.60
2023-02-12T00:24:05.968Z,2.80
2023-02-12T00:26:32.775Z,3.01
2023-02-12T00:28:59.376Z,2.75
2023-02-12T00:31:28.814Z,2.37
2023-02-12T00:33:55.761Z,2.57
2023-02-12T00:36:25.166Z,2.68
2023-02-12T00:38:53.712Z,2.60
2023-02-12T00:41:21.094Z,2.69
2023-02-12T00:43:48.769Z,2.88
2023-02-12T00:46:15.867Z,3.48
2023-02-12T00:48:42.915Z,2.77
2023-02-12T00:51:09.677Z,2.36
2023-02-12T00:53:36.419Z,2.50
2023-02-12T00:56:03.096Z,2.49
2023-02-12T00:58:29.707Z,2.40
2023-02-12T01:00:56.378Z,2.40
2023-02-12T01:03:23.894Z,2.47
2023-02-12T01:05:50.621Z,2.78
2023-02-12T01:08:17.594Z,2.22
2023-02-12T01:10:44.855Z,2.40
2023-02-12T01:13:15.355Z,2.28
2023-02-12T01:15:42.412Z,2.19
2023-02-12T01:18:09.242Z,2.25
2023-02-12T01:20:35.903Z,2.23
2023-02-12T01:23:03.385Z,2.27
2023-02-12T01:25:30.018Z,1.68
2023-02-12T01:27:56.656Z,2.49
2023-02-12T01:30:24.325Z,2.39
2023-02-12T01:32:51.140Z,2.50
2023-02-12T01:35:17.808Z,2.14
2023-02-12T01:37:44.468Z,1.83
2023-02-12T01:40:14.837Z,1.99
2023-02-12T01:42:41.436Z,2.11
2023-02-12T01:45:14.058Z,2.18
2023-02-12T01:47:42.405Z,2.16
2023-02-12T01:50:13.300Z,2.10
2023-02-12T01:52:43.734Z,2.36
2023-02-12T01:55:11.699Z,2.95
2023-02-12T01:57:42.761Z,2.78
2023-02-12T02:00:17.149Z,2.37
2023-02-12T02:02:47.263Z,2.54
2023-02-12T02:05:18.401Z,2.62
2023-02-12T02:07:45.664Z,2.91
2023-02-12T02:10:12.450Z,2.40
2023-02-12T02:12:58.383Z,2.61
2023-02-12T02:15:30.569Z,2.60
2023-02-12T02:18:09.191Z,2.34
2023-02-12T02:20:59.998Z,2.28
2023-02-12T02:23:59.315Z,2.48
2023-02-12T02:26:54.981Z,2.26
2023-02-12T02:29:27.285Z,2.01
2023-02-12T02:32:32.720Z,1.85
2023-02-12T02:35:09.596Z,1.83
2023-02-12T02:37:57.266Z,2.20
2023-02-12T02:40:27.250Z,2.00
2023-02-12T02:43:05.542Z,2.50
2023-02-12T02:45:43.646Z,2.40
2023-02-12T02:48:25.069Z,2.64
2023-02-12T02:51:24.602Z,3.02
2023-02-12T02:54:01.180Z,3.07
2023-02-12T02:56:29.666Z,2.40
2023-02-12T02:59:03.189Z,2.35
2023-02-12T03:01:38.959Z,2.52
2023-02-12T03:04:07.901Z,2.15
2023-02-12T03:06:47.139Z,2.31
2023-02-12T03:09:22.647Z,2.73
2023-02-12T03:11:50.980Z,2.59
2023-02-12T03:14:38.407Z,2.34
2023-02-12T03:17:15.694Z,2.73
2023-02-12T03:19:46.889Z,2.78
2023-02-12T03:22:22.243Z,2.64
2023-02-12T03:24:56.010Z,2.65
2023-02-12T03:27:33.246Z,2.92
2023-02-12T03:30:00.987Z,2.85
2023-02-12T03:32:52.026Z,2.59
2023-02-12T03:35:24.758Z,2.31
2023-02-12T03:38:39.762Z,2.31
2023-02-12T03:41:11.989Z,2.99
2023-02-12T03:44:04.095Z,2.97
2023-02-12T03:46:43.614Z,2.76
2023-02-12T03:49:29.266Z,2.79
2023-02-12T03:51:56.262Z,3.02
2023-02-12T03:54:23.199Z,2.98
2023-02-12T03:56:52.584Z,2.46
2023-02-12T03:59:21.364Z,2.73
2023-02-12T04:01:50.022Z,3.04
2023-02-12T04:04:17.543Z,3.10
2023-02-12T04:06:48.008Z,3.19
2023-02-12T04:09:15.436Z,3.09
2023-02-12T04:11:59.260Z,3.31
2023-02-12T04:14:56.902Z,2.99
2023-02-12T04:17:54.173Z,3.31
2023-02-12T04:20:41.416Z,3.32
2023-02-12T04:23:32.800Z,3.25
2023-02-12T04:26:22.253Z,3.06
2023-02-12T04:28:58.447Z,3.36
2023-02-12T04:31:44.982Z,3.12
2023-02-12T04:34:31.591Z,3.58
2023-02-12T04:37:05.673Z,3.57
2023-02-12T04:39:37.053Z,3.02
2023-02-12T04:42:04.156Z,3.51
2023-02-12T04:44:37.686Z,3.82
2023-02-12T04:47:04.628Z,3.57
2023-02-12T04:49:31.794Z,3.86
2023-02-12T04:51:58.584Z,4.02
2023-02-12T04:54:25.574Z,3.35
2023-02-12T04:56:52.230Z,3.29
2023-02-12T04:59:18.873Z,3.61
2023-02-12T05:01:45.691Z,3.51
2023-02-12T05:04:14.846Z,3.91
2023-02-12T05:06:42.707Z,3.32
2023-02-12T05:09:13.356Z,3.40
2023-02-12T05:11:40.031Z,3.14
2023-02-12T05:14:06.703Z,2.67
2023-02-12T05:16:33.288Z,2.93
2023-02-12T05:18:59.942Z,3.62
2023-02-12T05:21:26.618Z,2.72
2023-02-12T05:23:53.298Z,2.53
2023-02-12T05:26:22.199Z,2.80
2023-02-12T05:28:48.964Z,2.39
2023-02-12T05:31:21.289Z,2.26
2023-02-12T05:33:49.964Z,2.18
2023-02-12T05:36:22.545Z,1.88
2023-02-12T05:38:53.243Z,1.28
2023-02-12T05:41:22.378Z,1.65
2023-02-12T05:43:50.218Z,1.63
2023-02-12T05:46:19.341Z,1.62
2023-02-12T05:48:48.350Z,1.66
2023-02-12T05:51:21.967Z,2.10
2023-02-12T05:53:50.165Z,1.90
2023-02-12T05:56:20.220Z,1.80
2023-02-12T05:58:51.765Z,1.94
2023-02-12T06:01:22.331Z,1.90
2023-02-12T06:03:48.992Z,1.76
2023-02-12T06:06:15.646Z,2.11
2023-02-12T06:08:42.950Z,1.63
2023-02-12T06:11:14.061Z,1.58
2023-02-12T06:13:41.018Z,1.55
2023-02-12T06:16:08.341Z,1.58
2023-02-12T06:18:36.371Z,1.78
2023-02-12T06:21:04.409Z,1.86
2023-02-12T06:23:31.053Z,2.02
2023-02-12T06:25:58.171Z,1.93
2023-02-12T06:28:25.113Z,1.85
2023-02-12T06:30:52.063Z,1.50
2023-02-12T06:33:18.718Z,1.72
2023-02-12T06:35:45.392Z,1.52
2023-02-12T06:38:12.450Z,1.57
2023-02-12T06:40:39.045Z,1.26
2023-02-12T06:43:05.678Z,1.60
2023-02-12T06:45:33.563Z,1.86
2023-02-12T06:48:00.234Z,1.82
2023-02-12T06:50:27.678Z,2.52
2023-02-12T06:52:54.360Z,1.92
2023-02-12T06:55:21.183Z,2.01
2023-02-12T06:57:47.840Z,2.49
2023-02-12T07:00:14.719Z,3.01
2023-02-12T07:02:41.733Z,2.51
2023-02-12T07:05:08.571Z,2.69
2023-02-12T07:07:35.265Z,2.86
2023-02-12T07:10:02.028Z,2.81
2023-02-12T07:12:28.687Z,2.62
2023-02-12T07:14:55.320Z,2.79
2023-02-12T07:17:22.004Z,3.27
2023-02-12T07:19:48.586Z,3.17
2023-02-12T07:22:15.210Z,3.18
2023-02-12T07:24:41.925Z,2.63
2023-02-12T07:27:08.566Z,2.82
2023-02-12T07:29:35.293Z,2.87
2023-02-12T07:32:01.942Z,2.73
2023-02-12T07:34:28.609Z,3.03
2023-02-12T07:36:55.185Z,3.13
2023-02-12T07:39:22.053Z,2.79
2023-02-12T07:41:48.729Z,2.51
2023-02-12T07:44:15.387Z,2.98
2023-02-12T07:46:48.602Z,3.25
2023-02-12T07:49:18.609Z,3.41
2023-02-12T07:51:46.170Z,2.72
2023-02-12T07:54:13.393Z,2.61
2023-02-12T07:56:41.256Z,2.60
2023-02-12T07:59:12.630Z,3.61
2023-02-12T08:01:42.063Z,3.57
2023-02-12T08:04:13.390Z,3.60
2023-02-12T08:06:51.918Z,2.90
2023-02-12T08:09:21.742Z,2.52
2023-02-12T08:11:48.790Z,2.39
2023-02-12T08:14:18.709Z,2.46
2023-02-12T08:16:46.629Z,3.10
2023-02-12T08:19:20.978Z,3.23
2023-02-12T08:21:50.769Z,3.24
2023-02-12T08:24:17.455Z,3.27
2023-02-12T08:26:44.491Z,3.00
2023-02-12T08:29:14.412Z,3.45
2023-02-12T08:31:44.273Z,3.13
2023-02-12T08:34:22.440Z,2.81
2023-02-12T08:36:50.665Z,3.18
2023-02-12T08:39:18.342Z,2.69
2023-02-12T08:41:45.352Z,3.00
2023-02-12T08:44:12.420Z,2.42
2023-02-12T08:46:44.126Z,2.70
2023-02-12T08:49:16.428Z,3.10
2023-02-12T08:51:48.891Z,3.19
2023-02-12T08:54:21.416Z,3.28
2023-02-12T08:56:48.133Z,3.11
2023-02-12T08:59:16.091Z,3.02
2023-02-12T09:01:43.998Z,2.92
2023-02-12T09:04:23.307Z,2.90
2023-02-12T09:06:50.824Z,3.04
2023-02-12T09:09:17.973Z,3.28
2023-02-12T09:11:44.996Z,3.78
2023-02-12T09:14:15.675Z,3.13
2023-02-12T09:16:43.813Z,2.82
2023-02-12T09:19:13.740Z,3.02
2023-02-12T09:21:40.434Z,2.84
2023-02-12T09:24:07.844Z,2.87
2023-02-12T09:26:34.512Z,2.81
2023-02-12T09:29:04.389Z,2.85
2023-02-12T09:31:33.078Z,3.14
2023-02-12T09:34:05.021Z,3.20
2023-02-12T09:36:32.941Z,3.10
2023-02-12T09:39:00.482Z,3.15
2023-02-12T09:41:42.716Z,3.26
2023-02-12T09:44:38.353Z,3.54
2023-02-12T09:47:27.220Z,3.64
2023-02-12T09:50:00.153Z,3.22
2023-02-12T09:52:29.018Z,3.13
2023-02-12T09:54:56.900Z,3.00
2023-02-12T09:57:31.567Z,2.79
2023-02-12T10:00:03.949Z,2.17
2023-02-12T10:02:30.759Z,2.80
2023-02-12T10:05:01.843Z,2.28
2023-02-12T10:07:44.264Z,2.56
2023-02-12T10:10:38.470Z,2.83
2023-02-12T10:13:06.542Z,2.84
2023-02-12T10:15:39.137Z,2.16
2023-02-12T10:18:56.511Z,2.61
2023-02-12T10:21:23.026Z,2.42
2023-02-12T10:23:49.590Z,2.52
2023-02-12T10:26:25.896Z,3.15
2023-02-12T10:28:53.756Z,2.67
2023-02-12T10:31:32.153Z,2.92
2023-02-12T10:33:59.056Z,3.01
2023-02-12T10:36:41.761Z,3.37
2023-02-12T10:39:12.933Z,3.80
2023-02-12T10:41:55.071Z,4.18
2023-02-12T10:44:21.820Z,4.54
2023-02-12T10:46:48.534Z,4.61
2023-02-12T10:49:17.899Z,4.20
2023-02-12T10:51:56.472Z,4.19
2023-02-12T10:54:49.579Z,3.62
2023-02-12T10:57:26.709Z,4.09
2023-02-12T10:59:57.447Z,4.34
2023-02-12T11:02:33.433Z,4.72
2023-02-12T11:05:15.770Z,4.10
2023-02-12T11:07:51.028Z,3.57
2023-02-12T11:10:41.806Z,3.75
2023-02-12T11:13:25.559Z,3.78
2023-02-12T11:15:52.574Z,3.75
2023-02-12T11:18:26.250Z,4.17
2023-02-12T11:20:55.042Z,4.78
2023-02-12T11:23:38.259Z,4.78
2023-02-12T11:26:19.728Z,4.37
2023-02-12T11:29:17.198Z,3.78
2023-02-12T11:32:01.050Z,4.28
2023-02-12T11:34:29.822Z,4.52
2023-02-12T11:36:57.582Z,4.20
2023-02-12T11:39:28.019Z,4.29
2023-02-12T11:42:20.093Z,4.31
2023-02-12T11:44:57.361Z,4.32
2023-02-12T11:47:30.722Z,3.98
2023-02-12T11:50:00.467Z,4.19
2023-02-12T11:52:31.348Z,4.13
2023-02-12T11:55:02.675Z,4.25
2023-02-12T11:57:48.444Z,4.14
2023-02-12T12:00:25.810Z,4.39
2023-02-12T12:03:42.146Z,4.44
2023-02-12T12:06:19.923Z,4.83
2023-02-12T12:09:13.165Z,4.77
2023-02-12T12:11:59.179Z,4.72
2023-02-12T12:15:03.644Z,4.16
2023-02-12T12:18:15.105Z,4.25
2023-02-12T12:20:47.705Z,4.45
2023-02-12T12:23:21.837Z,5.04
2023-02-12T12:25:52.858Z,4.91
2023-02-12T12:28:45.552Z,4.98
2023-02-12T12:31:40.370Z,5.48
2023-02-12T12:34:13.620Z,5.17
2023-02-12T12:36:59.643Z,5.38
2023-02-12T12:39:34.999Z,5.43
2023-02-12T12:42:31.443Z,5.26
2023-02-12T12:44:57.964Z,5.15
2023-02-12T12:47:44.548Z,5.41
2023-02-12T12:50:32.190Z,5.50
2023-02-12T12:53:31.878Z,5.62
2023-02-12T12:56:11.030Z,5.55
2023-02-12T12:59:06.521Z,5.56
2023-02-12T13:01:42.275Z,5.87
2023-02-12T13:04:34.804Z,5.52
2023-02-12T13:07:10.313Z,5.26
2023-02-12T13:10:06.929Z,5.45
2023-02-12T13:12:37.732Z,5.98
2023-02-12T13:15:10.218Z,6.12
2023-02-12T13:17:41.464Z,5.27
2023-02-12T13:20:34.625Z,5.63
2023-02-12T13:23:04.191Z,5.43
2023-02-12T13:25:59.986Z,5.70
2023-02-12T13:28:40.809Z,5.43
2023-02-12T13:31:32.477Z,5.10
2023-02-12T13:34:04.447Z,5.08
2023-02-12T13:36:32.501Z,5.28
2023-02-12T13:39:15.255Z,4.71
2023-02-12T13:41:52.368Z,5.33
2023-02-12T13:44:32.953Z,5.38
2023-02-12T13:47:08.354Z,5.36
2023-02-12T13:49:49.852Z,4.37
2023-02-12T13:52:43.607Z,4.38
2023-02-12T13:55:35.049Z,4.56
2023-02-12T13:58:32.710Z,5.01
2023-02-12T14:01:04.775Z,4.85
2023-02-12T14:03:32.533Z,5.13
2023-02-12T14:13:27.929Z,5.13
2023-02-12T14:15:59.258Z,5.09
2023-02-12T14:18:31.636Z,5.34
2023-02-12T14:21:13.430Z,4.69
2023-02-12T14:23:45.932Z,5.14
2023-02-12T14:26:14.670Z,5.34
2023-02-12T14:28:45.427Z,5.08
2023-02-12T14:31:18.809Z,5.40
2023-02-12T14:33:50.818Z,5.23
2023-02-12T14:36:32.593Z,5.20
2023-02-12T14:39:22.047Z,5.45
2023-02-12T14:41:51.897Z,5.72
2023-02-12T14:44:18.473Z,5.23
2023-02-12T14:46:51.818Z,5.40
2023-02-12T14:49:28.716Z,5.60
2023-02-12T14:52:13.492Z,5.58
2023-02-12T14:54:51.457Z,5.78
2023-02-12T14:57:28.450Z,5.28
2023-02-12T14:59:59.067Z,5.40
2023-02-12T15:02:27.920Z,5.78
2023-02-12T15:05:06.836Z,5.03
2023-02-12T15:07:41.191Z,4.93
2023-02-12T15:10:15.482Z,4.75
2023-02-12T15:13:09.616Z,4.91
2023-02-12T15:15:45.598Z,5.10
2023-02-12T15:18:15.898Z,5.67
2023-02-12T15:20:55.209Z,5.65
2023-02-12T15:23:33.977Z,5.60
2023-02-12T15:26:01.200Z,5.84
2023-02-12T15:28:35.086Z,5.78
2023-02-12T15:31:04.866Z,5.97
2023-02-12T15:33:34.448Z,5.95
2023-02-12T15:36:03.182Z,5.96
2023-02-12T15:38:36.962Z,5.64
2023-02-12T15:41:05.001Z,5.97
2023-02-12T15:43:36.801Z,5.74
2023-02-12T15:46:06.373Z,5.64
2023-02-12T15:48:35.483Z,5.53
2023-02-12T15:51:30.163Z,5.59
2023-02-12T15:53:59.748Z,5.68
2023-02-12T15:56:27.920Z,5.49
2023-02-12T15:58:57.650Z,5.21
2023-02-12T16:01:35.518Z,4.67
2023-02-12T16:04:08.147Z,5.00
2023-02-12T16:06:36.840Z,5.28
2023-02-12T16:09:05.760Z,5.45
2023-02-12T16:11:33.654Z,5.43
2023-02-12T16:14:07.803Z,5.19
2023-02-12T16:16:46.134Z,5.18
2023-02-12T16:19:30.367Z,5.36
2023-02-12T16:22:11.918Z,5.11
2023-02-12T16:24:47.217Z,4.90
2023-02-12T16:27:34.679Z,5.07
2023-02-12T16:30:05.406Z,5.34
2023-02-12T16:32:41.250Z,5.30
2023-02-12T16:35:10.522Z,5.43
2023-02-12T16:37:37.075Z,5.33
2023-02-12T16:40:12.964Z,5.37
2023-02-12T16:42:55.465Z,5.54
2023-02-12T16:45:28.159Z,5.36
2023-02-12T16:48:24.474Z,5.52
2023-02-12T16:50:56.870Z,5.46
2023-02-12T16:53:43.770Z,5.40
2023-02-12T16:56:15.855Z,5.45
2023-02-12T16:58:43.057Z,5.46
2023-02-12T17:01:09.879Z,5.27
2023-02-12T17:03:37.620Z,4.80
2023-02-12T17:06:04.456Z,5.30
2023-02-12T17:08:31.111Z,5.42
2023-02-12T17:10:57.794Z,5.41
2023-02-12T17:13:24.366Z,5.27
2023-02-12T17:15:55.559Z,5.04
2023-02-12T17:18:25.006Z,4.80
2023-02-12T17:20:56.414Z,5.17
2023-02-12T17:23:24.162Z,5.13
2023-02-12T17:25:50.782Z,4.73
2023-02-12T17:28:17.508Z,5.05
2023-02-12T17:30:44.550Z,5.12
2023-02-12T17:33:11.560Z,5.21
2023-02-12T17:35:39.392Z,5.29
2023-02-12T17:38:07.469Z,5.20
2023-02-12T17:40:38.198Z,4.94
2023-02-12T17:43:06.617Z,5.09
2023-02-12T17:45:33.681Z,5.18
2023-02-12T17:48:00.426Z,4.75
2023-02-12T17:50:27.474Z,4.95
2023-02-12T17:52:54.126Z,5.04
2023-02-12T17:55:20.869Z,5.10
2023-02-12T17:57:56.407Z,5.06
2023-02-12T18:00:24.041Z,5.05
2023-02-12T18:02:52.072Z,4.96
2023-02-12T18:05:18.787Z,5.02
2023-02-12T18:07:45.350Z,5.03
2023-02-12T18:10:12.526Z,5.13
2023-02-12T18:12:39.902Z,5.15
2023-02-12T18:15:08.427Z,5.15
2023-02-12T18:17:35.960Z,5.16
2023-02-12T18:20:03.319Z,4.94
2023-02-12T18:22:30.095Z,4.99
2023-02-12T18:24:57.696Z,4.84
2023-02-12T18:27:24.414Z,4.96
2023-02-12T18:29:51.042Z,5.09
2023-02-12T18:32:17.703Z,4.80
2023-02-12T18:34:44.930Z,4.52
2023-02-12T18:37:13.456Z,4.75
2023-02-12T18:39:40.134Z,4.78
2023-02-12T18:42:07.423Z,4.49
2023-02-12T18:44:35.515Z,4.65
2023-02-12T18:47:02.221Z,4.82
2023-02-12T18:49:28.836Z,4.92
2023-02-12T18:51:55.485Z,4.98
2023-02-12T18:54:22.698Z,5.18
2023-02-12T18:56:52.400Z,5.09
2023-02-12T18:59:20.059Z,4.98
2023-02-12T19:01:48.634Z,4.96
2023-02-12T19:04:16.241Z,4.87
2023-02-12T19:06:47.384Z,4.86
2023-02-12T19:09:16.793Z,4.43
2023-02-12T19:11:46.527Z,4.83
2023-02-12T19:14:14.628Z,4.87
2023-02-12T19:16:42.180Z,4.84
2023-02-12T19:19:09.046Z,4.91
2023-02-12T19:21:35.796Z,4.47
2023-02-12T19:24:04.827Z,4.00
2023-02-12T19:26:33.570Z,4.58
2023-02-12T19:29:01.751Z,4.67
2023-02-12T19:31:34.733Z,4.73
2023-02-12T19:34:17.985Z,4.75
2023-02-12T19:36:44.744Z,4.77
2023-02-12T19:39:15.075Z,4.66
2023-02-12T19:41:41.841Z,4.80
2023-02-12T19:44:19.065Z,4.72
2023-02-12T19:46:46.890Z,4.72
2023-02-12T19:49:17.403Z,4.40
2023-02-12T19:51:44.555Z,4.25
2023-02-12T19:54:12.989Z,4.22
2023-02-12T19:56:39.874Z,4.45
2023-02-12T19:59:06.895Z,4.51
2023-02-12T20:01:34.259Z,4.40
2023-02-12T20:04:01.620Z,4.48
2023-02-12T20:06:31.972Z,4.48
2023-02-12T20:08:58.767Z,4.51
2023-02-12T20:11:28.889Z,4.58
2023-02-12T20:13:56.327Z,4.57
2023-02-12T20:16:26.220Z,4.50
2023-02-12T20:18:54.981Z,4.43
2023-02-12T20:21:25.452Z,4.42
2023-02-12T20:23:52.328Z,4.44
2023-02-12T20:26:22.670Z,4.40
2023-02-12T20:28:50.125Z,3.95
2023-02-12T20:31:22.922Z,4.05
2023-02-12T20:34:03.509Z,4.12
2023-02-12T20:36:34.884Z,4.28
2023-02-12T20:39:01.833Z,4.20
2023-02-12T20:41:28.927Z,4.06
2023-02-12T20:43:56.226Z,4.20
2023-02-12T20:46:24.988Z,4.18
2023-02-12T20:48:52.504Z,4.04
2023-02-12T20:51:22.289Z,4.12
2023-02-12T20:53:50.060Z,3.87
2023-02-12T20:56:19.779Z,4.04
2023-02-12T20:58:47.385Z,4.07
2023-02-12T21:01:21.185Z,4.07
2023-02-12T21:03:49.541Z,3.77
2023-02-12T21:06:16.173Z,3.82
2023-02-12T21:08:43.173Z,3.87
2023-02-12T21:11:16.754Z,3.89
2023-02-12T21:13:58.778Z,3.88
2023-02-12T21:16:30.827Z,3.89
2023-02-12T21:18:57.814Z,3.96
2023-02-12T21:21:32.676Z,3.66
2023-02-12T21:24:00.373Z,3.89
2023-02-12T21:26:30.294Z,3.91
2023-02-12T21:28:59.220Z,4.01
2023-02-12T21:31:28.984Z,3.76
2023-02-12T21:33:57.691Z,3.91
2023-02-12T21:36:45.375Z,3.85
2023-02-12T21:39:24.405Z,3.69
2023-02-12T21:41:53.755Z,3.90
2023-02-12T21:44:21.636Z,3.96
2023-02-12T21:46:48.264Z,3.82
2023-02-12T21:49:23.217Z,3.89
2023-02-12T21:51:50.512Z,3.70
2023-02-12T21:54:17.212Z,3.56
2023-02-12T21:56:45.892Z,3.68
2023-02-12T21:59:12.936Z,3.43
2023-02-12T22:01:43.752Z,3.34
2023-02-12T22:04:10.799Z,3.53
2023-02-12T22:06:41.852Z,3.44
2023-02-12T22:09:10.665Z,3.62
2023-02-12T22:11:38.440Z,3.79
2023-02-12T22:14:07.202Z,3.83
2023-02-12T22:16:34.991Z,3.44
2023-02-12T22:19:02.650Z,3.51
2023-02-12T22:21:32.155Z,3.51
2023-02-12T22:24:05.543Z,2.81
2023-02-12T22:26:32.964Z,2.32
2023-02-12T22:29:04.590Z,2.79
2023-02-12T22:31:33.614Z,3.37
2023-02-12T22:34:04.820Z,3.75
2023-02-12T22:36:33.595Z,3.77
2023-02-12T22:39:01.140Z,3.57
2023-02-12T22:41:28.636Z,3.64
2023-02-12T22:43:58.373Z,3.80
2023-02-12T22:46:25.279Z,3.64
2023-02-12T22:48:51.915Z,3.47
2023-02-12T22:51:20.817Z,3.22
2023-02-12T22:53:47.845Z,3.54
2023-02-12T22:56:15.365Z,3.41
2023-02-12T22:58:42.372Z,3.64
2023-02-12T23:01:11.840Z,3.64
2023-02-12T23:03:39.053Z,3.81
2023-02-12T23:06:08.834Z,3.79
2023-02-12T23:08:35.648Z,3.63
2023-02-12T23:11:02.937Z,3.65
2023-02-12T23:13:30.368Z,3.73
2023-02-12T23:15:58.096Z,3.85
2023-02-12T23:18:25.918Z,3.82
2023-02-12T23:20:53.130Z,3.71
2023-02-12T23:23:21.304Z,3.73
2023-02-12T23:25:48.949Z,3.57
2023-02-12T23:28:16.136Z,3.83
2023-02-12T23:30:43.091Z,3.83
2023-02-12T23:33:10.067Z,3.89
2023-02-12T23:35:36.681Z,3.85
2023-02-12T23:38:04.462Z,3.55
2023-02-12T23:40:34.163Z,3.31
2023-02-12T23:43:01.920Z,3.46
2023-02-12T23:45:28.956Z,3.37
2023-02-12T23:47:55.911Z,3.32
2023-02-12T23:50:23.169Z,3.51
2023-02-12T23:52:50.083Z,3.45
2023-02-12T23:55:18.828Z,3.19
2023-02-12T23:57:45.981Z,3.31
